KAIZ/AIZ METAR and TAF weather

Enter ICAO airport designator
Station Type Date Time Source
KAIZ METAR 2020/02/26 10:25 UTC NOAA

KAIZ 261025Z AUTO 34007KT 5SM -SN BR BKN010 OVC016 M01/M01 A3014 RMK AO2 CIG 005V012 P0001 FZRANO


Station Type Date Time Source
KAIZ Decoded METAR 2020/02/26 10:25 UTC NOAA

Kaiser Lake Ozark, Lee C Fine Memorial Airport, MO, United States (KAIZ) 38-06N 092-33W
Feb 26, 2020 - 05:25 AM EST / 2020.02.26 1025 UTC
Wind: from the NNW (340 degrees) at 8 MPH (7 KT):0
Visibility: 5 mile(s):0
Sky conditions: overcast
Weather: light snow; mist
Precipitation last hour: 0.01 inches
Temperature: 30 F (-1 C)
Windchill: 23 F (-5 C):1
Dew Point: 30 F (-1 C)
Relative Humidity: 100%
Pressure (altimeter): 30.14 in. Hg (1020 hPa)
ob: KAIZ 261025Z AUTO 34007KT 5SM -SN BR BKN010 OVC016 M01/M01 A3014 RMK AO2 CIG 005V012 P0001 FZRANO
cycle: 10

Station Type Date Time Source
KAIZ TAF UTC NOAA

Error!

Example: see airport list